Eucla Motel, Australia
Current Conditions -  °F | °C
As of 6:00 AM on Tuesday 25 Nov 2014 (Local Time) from YCDU Reporting Station
Clear Clear  
Wind Chill: 64°   Ceiling: Unl
Heat Index: 64°   Visibility: 6mi
Dew Point: 43°   Wind: 10mph
Humidity: 45%   Direction: 120°ESE
Pressure: 30.21"   Gusts: NA
Location:  31.68°S, 128.88°E
Report Text: YCDU 242200Z 12009KT CAVOK 18/06 Q1023
Loading
Personal Weather Stations






























Interactive Weather Map New forecast layout! Learn more

10-Day Weather Forecast

Advertisements
Track Severe Weather on mobile